Main page
Satellite images 15-day forecastsClimateMarine weather Cyclones Lightning AirportsFAQ Newsletter About
Weather : Europe Africa North America South America Asia Australia-Oceania Others
Languages Contact

Waddington, England

RAF

latitude: 53-10N, longitude: 000-31W, elevation: 68 m


METAR: EGXW 291750Z 31008KT 9999 FEW030 BKN044 BKN070 21/14 Q1014 BLU NOSIG
short-TAF: out of date (27151 hours)
long-TAF: EGXW 291631Z 2918/3012 30008KT 9999 BKN028

Time: 19:48 (18:48 UTC)

Current weather observation

The report was made 58 minutes ago, at 17:50 UTC  
Wind 08 kt from the Northwest
Temperature 21°C
Humidity 64%
Pressure 1014 hPa
Visibility 10 km or more
Few clouds at a height of 3000 ft
Broken clouds at a height of 4400 ft
Broken clouds at a height of 7000 ft

Change units

Forecast

The report was made 1 hour and 45 minutes ago, at 17:03 UTC  
Forecast valid from 29 at 18 UTC to 30 at 12 UTC
Wind 08 kt from the West/Northwest
Visibility 10 km or more
Broken clouds at a height of 2800 ft
The information on this site is subject to a disclaimer
Weather : Europe Africa North America South America Asia Australia-Oceania Others
Satellite images 15-day forecastsClimateMarine weather Cyclones Lightning AirportsFAQ Languages Contact Newsletter About